sensor_id;sensor_type;location;lat;lon;timestamp;pressure;altitude;pressure_sealevel;temperature;humidity
52719;BME280;38616;42.140;24.760;2023-06-26T00:01:19;99068.91;;;24.05;56.77
52719;BME280;38616;42.140;24.760;2023-06-26T00:03:47;99062.69;;;24.23;56.42
52719;BME280;38616;42.140;24.760;2023-06-26T00:06:13;99061.47;;;24.17;56.54
52719;BME280;38616;42.140;24.760;2023-06-26T00:08:39;99055.72;;;23.95;56.97
52719;BME280;38616;42.140;24.760;2023-06-26T00:11:04;99058.47;;;23.91;57.78
52719;BME280;38616;42.140;24.760;2023-06-26T00:13:30;99058.84;;;23.90;57.19
52719;BME280;38616;42.140;24.760;2023-06-26T00:15:55;99059.69;;;23.94;57.47
52719;BME280;38616;42.140;24.760;2023-06-26T00:18:21;99048.16;;;23.88;57.69
52719;BME280;38616;42.140;24.760;2023-06-26T00:20:46;99059.94;;;23.78;58.13
52719;BME280;38616;42.140;24.760;2023-06-26T00:23:12;99054.06;;;23.87;57.73
52719;BME280;38616;42.140;24.760;2023-06-26T00:25:38;99063.56;;;23.82;57.90
52719;BME280;38616;42.140;24.760;2023-06-26T00:28:04;99063.56;;;23.86;57.90
52719;BME280;38616;42.140;24.760;2023-06-26T00:30:29;99070.25;;;23.78;58.07
52719;BME280;38616;42.140;24.760;2023-06-26T00:32:54;99074.50;;;23.64;58.55
52719;BME280;38616;42.140;24.760;2023-06-26T00:35:20;99070.13;;;23.63;58.69
52719;BME280;38616;42.140;24.760;2023-06-26T00:37:45;99073.81;;;23.74;58.33
52719;BME280;38616;42.140;24.760;2023-06-26T00:40:12;99058.72;;;23.72;58.41
52719;BME280;38616;42.140;24.760;2023-06-26T00:42:37;99074.56;;;23.71;58.28
52719;BME280;38616;42.140;24.760;2023-06-26T00:45:03;99062.19;;;23.61;58.82
52719;BME280;38616;42.140;24.760;2023-06-26T00:47:29;99061.53;;;23.79;58.52
52719;BME280;38616;42.140;24.760;2023-06-26T00:49:55;99067.84;;;23.72;58.50
52719;BME280;38616;42.140;24.760;2023-06-26T00:52:20;99069.03;;;23.75;58.51
52719;BME280;38616;42.140;24.760;2023-06-26T00:54:47;99067.00;;;23.68;58.66
52719;BME280;38616;42.140;24.760;2023-06-26T00:57:13;99065.28;;;23.53;59.63
52719;BME280;38616;42.140;24.760;2023-06-26T00:59:38;99062.91;;;23.55;59.66
52719;BME280;38616;42.140;24.760;2023-06-26T01:02:04;99054.69;;;23.62;59.50
52719;BME280;38616;42.140;24.760;2023-06-26T01:04:31;99057.72;;;23.50;59.63
52719;BME280;38616;42.140;24.760;2023-06-26T01:06:58;99060.84;;;23.44;60.30
52719;BME280;38616;42.140;24.760;2023-06-26T01:09:24;99056.78;;;23.35;60.50
52719;BME280;38616;42.140;24.760;2023-06-26T01:11:51;99052.19;;;23.53;59.93
52719;BME280;38616;42.140;24.760;2023-06-26T01:14:17;99043.53;;;23.58;59.95
52719;BME280;38616;42.140;24.760;2023-06-26T01:16:43;99048.06;;;23.33;60.64
52719;BME280;38616;42.140;24.760;2023-06-26T01:19:24;99049.53;;;23.23;61.22
52719;BME280;38616;42.140;24.760;2023-06-26T01:24:32;99049.47;;;23.57;60.14
52719;BME280;38616;42.140;24.760;2023-06-26T01:26:59;99044.81;;;23.27;61.12
52719;BME280;38616;42.140;24.760;2023-06-26T01:29:28;99046.63;;;23.50;60.21
52719;BME280;38616;42.140;24.760;2023-06-26T01:31:54;99046.59;;;23.46;60.30
52719;BME280;38616;42.140;24.760;2023-06-26T01:34:23;99030.06;;;23.57;60.04
52719;BME280;38616;42.140;24.760;2023-06-26T01:36:48;99028.00;;;23.46;60.49
52719;BME280;38616;42.140;24.760;2023-06-26T01:39:16;99028.66;;;23.33;61.06
52719;BME280;38616;42.140;24.760;2023-06-26T01:41:41;99032.91;;;23.23;61.04
52719;BME280;38616;42.140;24.760;2023-06-26T01:47:01;99035.06;;;23.40;60.99
52719;BME280;38616;42.140;24.760;2023-06-26T01:54:41;99024.41;;;23.46;60.62
52719;BME280;38616;42.140;24.760;2023-06-26T01:57:09;99026.75;;;23.40;60.61
52719;BME280;38616;42.140;24.760;2023-06-26T01:59:35;99031.13;;;23.41;60.36
52719;BME280;38616;42.140;24.760;2023-06-26T02:02:06;99029.09;;;23.38;61.20
52719;BME280;38616;42.140;24.760;2023-06-26T02:04:32;99034.38;;;23.51;60.55
52719;BME280;38616;42.140;24.760;2023-06-26T02:06:57;99036.34;;;23.50;60.37
52719;BME280;38616;42.140;24.760;2023-06-26T02:09:23;99035.38;;;23.31;60.97
52719;BME280;38616;42.140;24.760;2023-06-26T02:11:48;99028.75;;;23.40;60.86
52719;BME280;38616;42.140;24.760;2023-06-26T02:14:13;99034.16;;;23.70;60.17
52719;BME280;38616;42.140;24.760;2023-06-26T02:16:39;99035.19;;;24.00;58.93
52719;BME280;38616;42.140;24.760;2023-06-26T02:19:04;99035.31;;;24.18;58.23
52719;BME280;38616;42.140;24.760;2023-06-26T02:21:30;99036.13;;;24.22;57.84
52719;BME280;38616;42.140;24.760;2023-06-26T02:23:55;99030.59;;;24.22;58.09
52719;BME280;38616;42.140;24.760;2023-06-26T02:26:23;99035.41;;;24.32;57.69
52719;BME280;38616;42.140;24.760;2023-06-26T02:28:49;99032.22;;;24.34;57.50
52719;BME280;38616;42.140;24.760;2023-06-26T02:31:15;99039.78;;;24.37;57.95
52719;BME280;38616;42.140;24.760;2023-06-26T02:33:41;99039.81;;;24.41;57.68
52719;BME280;38616;42.140;24.760;2023-06-26T02:36:07;99035.06;;;24.45;57.46
52719;BME280;38616;42.140;24.760;2023-06-26T02:38:33;99036.22;;;24.37;57.95
52719;BME280;38616;42.140;24.760;2023-06-26T02:40:58;99035.34;;;24.22;58.22
52719;BME280;38616;42.140;24.760;2023-06-26T02:43:23;99031.31;;;24.12;58.13
52719;BME280;38616;42.140;24.760;2023-06-26T02:45:49;99032.06;;;24.09;58.34
52719;BME280;38616;42.140;24.760;2023-06-26T02:48:14;99032.94;;;24.20;58.48
52719;BME280;38616;42.140;24.760;2023-06-26T02:50:39;99029.38;;;24.19;58.20
52719;BME280;38616;42.140;24.760;2023-06-26T02:53:05;99025.53;;;24.39;57.96
52719;BME280;38616;42.140;24.760;2023-06-26T02:55:30;99031.50;;;24.41;57.74
52719;BME280;38616;42.140;24.760;2023-06-26T02:57:55;99033.03;;;24.34;57.53
52719;BME280;38616;42.140;24.760;2023-06-26T03:00:21;99024.25;;;24.22;57.82
52719;BME280;38616;42.140;24.760;2023-06-26T03:02:46;99023.41;;;24.14;58.23
52719;BME280;38616;42.140;24.760;2023-06-26T03:05:12;99034.81;;;24.01;58.68
52719;BME280;38616;42.140;24.760;2023-06-26T03:07:38;99034.84;;;24.09;58.70
52719;BME280;38616;42.140;24.760;2023-06-26T03:10:04;99036.09;;;24.15;58.00
52719;BME280;38616;42.140;24.760;2023-06-26T03:12:30;99051.28;;;24.35;57.74
52719;BME280;38616;42.140;24.760;2023-06-26T03:14:56;99041.44;;;24.53;57.24
52719;BME280;38616;42.140;24.760;2023-06-26T03:17:21;99044.97;;;24.42;57.19
52719;BME280;38616;42.140;24.760;2023-06-26T03:19:46;99037.00;;;24.33;57.43
52719;BME280;38616;42.140;24.760;2023-06-26T03:22:14;99042.97;;;24.35;57.09
52719;BME280;38616;42.140;24.760;2023-06-26T03:24:40;99043.69;;;24.25;57.34
52719;BME280;38616;42.140;24.760;2023-06-26T03:27:05;99044.25;;;23.97;58.20
52719;BME280;38616;42.140;24.760;2023-06-26T03:29:31;99052.78;;;24.18;57.78
52719;BME280;38616;42.140;24.760;2023-06-26T03:31:56;99051.22;;;24.25;57.54
52719;BME280;38616;42.140;24.760;2023-06-26T03:34:22;99052.69;;;24.08;57.96
52719;BME280;38616;42.140;24.760;2023-06-26T03:36:47;99058.72;;;24.20;58.15
52719;BME280;38616;42.140;24.760;2023-06-26T03:39:12;99064.19;;;24.10;58.10
52719;BME280;38616;42.140;24.760;2023-06-26T03:41:38;99056.53;;;23.96;58.43
52719;BME280;38616;42.140;24.760;2023-06-26T03:44:03;99054.03;;;23.80;59.29
52719;BME280;38616;42.140;24.760;2023-06-26T03:46:29;99054.03;;;23.80;59.19
52719;BME280;38616;42.140;24.760;2023-06-26T03:48:54;99051.00;;;23.96;58.75
52719;BME280;38616;42.140;24.760;2023-06-26T03:51:20;99058.63;;;24.06;58.59
52719;BME280;38616;42.140;24.760;2023-06-26T03:53:45;99048.47;;;24.28;57.69
52719;BME280;38616;42.140;24.760;2023-06-26T03:56:10;99049.69;;;24.38;57.52
52719;BME280;38616;42.140;24.760;2023-06-26T03:58:36;99048.72;;;24.09;58.15
52719;BME280;38616;42.140;24.760;2023-06-26T04:01:01;99052.00;;;24.25;57.93
52719;BME280;38616;42.140;24.760;2023-06-26T04:03:27;99054.44;;;24.34;57.69
52719;BME280;38616;42.140;24.760;2023-06-26T04:05:52;99043.41;;;24.48;57.07
52719;BME280;38616;42.140;24.760;2023-06-26T04:08:17;99042.44;;;24.15;57.91
52719;BME280;38616;42.140;24.760;2023-06-26T04:10:44;99041.31;;;24.24;57.89
52719;BME280;38616;42.140;24.760;2023-06-26T04:13:10;99044.09;;;24.31;57.38
52719;BME280;38616;42.140;24.760;2023-06-26T04:15:36;99051.31;;;24.43;57.36
52719;BME280;38616;42.140;24.760;2023-06-26T04:18:01;99048.72;;;24.09;58.29
52719;BME280;38616;42.140;24.760;2023-06-26T04:20:26;99039.34;;;24.28;57.47
52719;BME280;38616;42.140;24.760;2023-06-26T04:22:52;99034.56;;;24.25;58.22
52719;BME280;38616;42.140;24.760;2023-06-26T04:25:17;99029.16;;;24.54;56.66
52719;BME280;38616;42.140;24.760;2023-06-26T04:27:43;99033.56;;;24.62;56.61
52719;BME280;38616;42.140;24.760;2023-06-26T04:30:09;99026.13;;;24.73;56.06
52719;BME280;38616;42.140;24.760;2023-06-26T04:32:34;99030.78;;;24.58;56.43
52719;BME280;38616;42.140;24.760;2023-06-26T04:35:00;99043.38;;;24.38;56.88
52719;BME280;38616;42.140;24.760;2023-06-26T04:37:26;99037.81;;;24.38;56.87
52719;BME280;38616;42.140;24.760;2023-06-26T04:39:51;99039.56;;;24.68;56.46
52719;BME280;38616;42.140;24.760;2023-06-26T04:42:17;99051.56;;;24.93;55.83
52719;BME280;38616;42.140;24.760;2023-06-26T04:44:42;99040.47;;;24.93;55.62
52719;BME280;38616;42.140;24.760;2023-06-26T04:47:08;99052.22;;;24.61;56.28
52719;BME280;38616;42.140;24.760;2023-06-26T04:49:34;99042.69;;;24.59;56.44
52719;BME280;38616;42.140;24.760;2023-06-26T04:51:59;99056.19;;;24.60;56.22
52719;BME280;38616;42.140;24.760;2023-06-26T04:54:25;99049.47;;;24.69;56.18
52719;BME280;38616;42.140;24.760;2023-06-26T04:56:51;99064.22;;;24.73;56.73
52719;BME280;38616;42.140;24.760;2023-06-26T04:59:16;99056.41;;;25.18;55.08
52719;BME280;38616;42.140;24.760;2023-06-26T05:01:42;99053.97;;;24.99;55.15
52719;BME280;38616;42.140;24.760;2023-06-26T05:04:09;99065.94;;;25.10;54.72
52719;BME280;38616;42.140;24.760;2023-06-26T05:06:34;99061.25;;;25.43;54.35
52719;BME280;38616;42.140;24.760;2023-06-26T05:09:00;99066.84;;;25.61;53.68
52719;BME280;38616;42.140;24.760;2023-06-26T05:11:25;99075.09;;;25.32;54.39
52719;BME280;38616;42.140;24.760;2023-06-26T05:13:51;99076.19;;;24.99;54.65
52719;BME280;38616;42.140;24.760;2023-06-26T05:16:16;99080.47;;;24.78;54.63
52719;BME280;38616;42.140;24.760;2023-06-26T05:18:42;99098.25;;;24.62;55.15
52719;BME280;38616;42.140;24.760;2023-06-26T05:21:07;99093.47;;;24.59;55.55
52719;BME280;38616;42.140;24.760;2023-06-26T05:23:35;99091.25;;;24.90;54.90
52719;BME280;38616;42.140;24.760;2023-06-26T05:26:01;99106.69;;;24.84;54.71
52719;BME280;38616;42.140;24.760;2023-06-26T05:28:28;99099.94;;;24.85;54.27
52719;BME280;38616;42.140;24.760;2023-06-26T05:30:56;99107.13;;;24.93;54.28
52719;BME280;38616;42.140;24.760;2023-06-26T05:33:23;99106.19;;;24.68;54.71
52719;BME280;38616;42.140;24.760;2023-06-26T05:35:51;99105.88;;;24.73;54.91
52719;BME280;38616;42.140;24.760;2023-06-26T05:38:17;99100.41;;;24.98;53.75
52719;BME280;38616;42.140;24.760;2023-06-26T05:40:43;99101.94;;;24.88;53.57
52719;BME280;38616;42.140;24.760;2023-06-26T05:43:08;99097.63;;;24.94;54.25
52719;BME280;38616;42.140;24.760;2023-06-26T05:45:34;99093.03;;;25.46;53.28
52719;BME280;38616;42.140;24.760;2023-06-26T05:47:59;99095.84;;;25.57;52.64
52719;BME280;38616;42.140;24.760;2023-06-26T05:50:26;99094.28;;;25.92;51.81
52719;BME280;38616;42.140;24.760;2023-06-26T05:52:52;99106.91;;;25.38;51.71
52719;BME280;38616;42.140;24.760;2023-06-26T05:55:17;99092.59;;;25.36;52.57
52719;BME280;38616;42.140;24.760;2023-06-26T05:57:45;99092.19;;;25.31;52.39
52719;BME280;38616;42.140;24.760;2023-06-26T06:00:11;99090.56;;;25.22;52.66
52719;BME280;38616;42.140;24.760;2023-06-26T06:02:37;99098.09;;;25.11;52.58
52719;BME280;38616;42.140;24.760;2023-06-26T06:05:03;99100.03;;;25.07;52.73
52719;BME280;38616;42.140;24.760;2023-06-26T06:07:29;99094.94;;;25.23;52.96
52719;BME280;38616;42.140;24.760;2023-06-26T06:09:54;99091.91;;;25.69;52.45
52719;BME280;38616;42.140;24.760;2023-06-26T06:12:20;99092.59;;;25.44;51.38
52719;BME280;38616;42.140;24.760;2023-06-26T06:14:45;99102.47;;;25.19;52.59
52719;BME280;38616;42.140;24.760;2023-06-26T06:17:10;99098.47;;;25.06;52.46
52719;BME280;38616;42.140;24.760;2023-06-26T06:19:36;99102.75;;;24.89;52.88
52719;BME280;38616;42.140;24.760;2023-06-26T06:22:01;99109.94;;;24.97;53.01
52719;BME280;38616;42.140;24.760;2023-06-26T06:24:27;99109.63;;;25.24;52.84
52719;BME280;38616;42.140;24.760;2023-06-26T06:26:52;99103.66;;;25.18;52.39
52719;BME280;38616;42.140;24.760;2023-06-26T06:29:18;99120.91;;;24.72;53.42
52719;BME280;38616;42.140;24.760;2023-06-26T06:31:44;99110.56;;;24.69;53.71
52719;BME280;38616;42.140;24.760;2023-06-26T06:34:10;99109.84;;;24.79;53.64
52719;BME280;38616;42.140;24.760;2023-06-26T06:36:35;99107.78;;;24.69;53.33
52719;BME280;38616;42.140;24.760;2023-06-26T06:39:01;99097.63;;;24.94;52.70
52719;BME280;38616;42.140;24.760;2023-06-26T06:41:26;99104.72;;;24.88;53.47
52719;BME280;38616;42.140;24.760;2023-06-26T06:43:51;99105.47;;;24.78;52.59
52719;BME280;38616;42.140;24.760;2023-06-26T06:46:17;99102.28;;;24.76;52.42
52719;BME280;38616;42.140;24.760;2023-06-26T06:48:42;99111.75;;;24.68;53.33
52719;BME280;38616;42.140;24.760;2023-06-26T06:51:07;99104.19;;;24.64;53.04
52719;BME280;38616;42.140;24.760;2023-06-26T06:53:33;99109.50;;;24.91;52.62
52719;BME280;38616;42.140;24.760;2023-06-26T06:55:58;99100.44;;;25.05;51.79
52719;BME280;38616;42.140;24.760;2023-06-26T06:58:24;99099.28;;;25.17;51.40
52719;BME280;38616;42.140;24.760;2023-06-26T07:00:49;99101.81;;;25.59;50.51
52719;BME280;38616;42.140;24.760;2023-06-26T07:03:16;99104.19;;;25.64;50.02
52719;BME280;38616;42.140;24.760;2023-06-26T07:05:41;99104.59;;;25.51;50.13
52719;BME280;38616;42.140;24.760;2023-06-26T07:08:07;99110.16;;;25.51;50.14
52719;BME280;38616;42.140;24.760;2023-06-26T07:10:33;99106.16;;;25.56;49.74
52719;BME280;38616;42.140;24.760;2023-06-26T07:12:59;99098.25;;;25.80;48.78
52719;BME280;38616;42.140;24.760;2023-06-26T07:15:25;99093.91;;;26.19;48.53
52719;BME280;38616;42.140;24.760;2023-06-26T07:17:52;99090.31;;;26.04;48.43
52719;BME280;38616;42.140;24.760;2023-06-26T07:20:18;99097.06;;;25.66;49.06
52719;BME280;38616;42.140;24.760;2023-06-26T07:22:43;99085.13;;;25.80;48.87
52719;BME280;38616;42.140;24.760;2023-06-26T07:25:10;99082.34;;;25.73;48.41
52719;BME280;38616;42.140;24.760;2023-06-26T07:27:39;99083.16;;;26.28;48.05
52719;BME280;38616;42.140;24.760;2023-06-26T07:30:05;99085.16;;;26.31;46.92
52719;BME280;38616;42.140;24.760;2023-06-26T07:32:30;99085.16;;;26.31;46.81
52719;BME280;38616;42.140;24.760;2023-06-26T07:34:56;99093.03;;;26.58;46.76
52719;BME280;38616;42.140;24.760;2023-06-26T07:37:21;99086.97;;;26.96;45.97
52719;BME280;38616;42.140;24.760;2023-06-26T07:39:48;99081.38;;;26.96;46.20
52719;BME280;38616;42.140;24.760;2023-06-26T07:42:14;99089.38;;;26.90;45.99
52719;BME280;38616;42.140;24.760;2023-06-26T07:44:41;99085.84;;;26.82;46.35
52719;BME280;38616;42.140;24.760;2023-06-26T07:47:07;99082.13;;;27.11;45.66
52719;BME280;38616;42.140;24.760;2023-06-26T07:49:32;99077.16;;;27.44;45.37
52719;BME280;38616;42.140;24.760;2023-06-26T07:51:58;99073.81;;;27.75;44.87
52719;BME280;38616;42.140;24.760;2023-06-26T07:54:23;99078.72;;;27.52;43.61
52719;BME280;38616;42.140;24.760;2023-06-26T07:56:57;99082.13;;;27.82;43.97
52719;BME280;38616;42.140;24.760;2023-06-26T07:59:24;99078.75;;;28.01;43.46
52719;BME280;38616;42.140;24.760;2023-06-26T08:01:50;99089.75;;;27.74;43.53
52719;BME280;38616;42.140;24.760;2023-06-26T08:04:18;99096.53;;;27.73;43.37
52719;BME280;38616;42.140;24.760;2023-06-26T08:06:44;99089.00;;;27.66;43.92
52719;BME280;38616;42.140;24.760;2023-06-26T08:09:10;99087.78;;;27.71;43.70
52719;BME280;38616;42.140;24.760;2023-06-26T08:11:36;99094.88;;;27.08;44.05
52719;BME280;38616;42.140;24.760;2023-06-26T08:14:01;99087.81;;;26.89;43.87
52719;BME280;38616;42.140;24.760;2023-06-26T08:16:27;99104.16;;;26.69;44.72
52719;BME280;38616;42.140;24.760;2023-06-26T08:18:55;99092.22;;;26.72;44.47
52719;BME280;38616;42.140;24.760;2023-06-26T08:21:20;99097.81;;;26.65;44.79
52719;BME280;38616;42.140;24.760;2023-06-26T08:23:45;99100.63;;;26.50;45.75
52719;BME280;38616;42.140;24.760;2023-06-26T08:26:11;99114.97;;;26.49;46.74
52719;BME280;38616;42.140;24.760;2023-06-26T08:28:36;99116.94;;;26.08;51.73
52719;BME280;38616;42.140;24.760;2023-06-26T08:31:01;99124.88;;;25.74;54.49
52719;BME280;38616;42.140;24.760;2023-06-26T08:33:27;99125.09;;;25.14;57.49
52719;BME280;38616;42.140;24.760;2023-06-26T08:35:52;99122.78;;;24.53;57.15
52719;BME280;38616;42.140;24.760;2023-06-26T08:38:18;99123.69;;;24.72;56.74
52719;BME280;38616;42.140;24.760;2023-06-26T08:40:46;99107.34;;;24.59;56.60
52719;BME280;38616;42.140;24.760;2023-06-26T08:43:12;99109.50;;;24.91;58.43
52719;BME280;38616;42.140;24.760;2023-06-26T08:45:37;99095.34;;;25.26;55.85
52719;BME280;38616;42.140;24.760;2023-06-26T08:48:03;99091.88;;;25.61;60.46
52719;BME280;38616;42.140;24.760;2023-06-26T08:50:34;99089.13;;;25.83;58.56
52719;BME280;38616;42.140;24.760;2023-06-26T08:53:29;99082.75;;;26.04;58.35
52719;BME280;38616;42.140;24.760;2023-06-26T08:55:59;99080.75;;;26.34;57.72
52719;BME280;38616;42.140;24.760;2023-06-26T08:58:25;99067.16;;;26.61;59.75
52719;BME280;38616;42.140;24.760;2023-06-26T09:00:50;99075.50;;;26.68;60.16
52719;BME280;38616;42.140;24.760;2023-06-26T09:03:16;99075.50;;;26.87;60.52
52719;BME280;38616;42.140;24.760;2023-06-26T09:05:42;99080.16;;;27.04;58.46
52719;BME280;38616;42.140;24.760;2023-06-26T09:08:08;99072.94;;;27.18;58.79
52719;BME280;38616;42.140;24.760;2023-06-26T09:10:33;99070.53;;;27.23;59.33
52719;BME280;38616;42.140;24.760;2023-06-26T09:12:59;99082.34;;;27.46;56.42
52719;BME280;38616;42.140;24.760;2023-06-26T09:15:26;99074.72;;;27.57;55.17
52719;BME280;38616;42.140;24.760;2023-06-26T09:17:56;99073.28;;;27.87;54.89
52719;BME280;38616;42.140;24.760;2023-06-26T09:20:22;99071.34;;;27.80;55.04
52719;BME280;38616;42.140;24.760;2023-06-26T09:22:48;99071.78;;;27.75;53.63
52719;BME280;38616;42.140;24.760;2023-06-26T09:25:14;99065.63;;;27.98;51.73
52719;BME280;38616;42.140;24.760;2023-06-26T09:27:39;99066.16;;;28.28;50.95
52719;BME280;38616;42.140;24.760;2023-06-26T09:30:06;99064.25;;;28.21;48.44
52719;BME280;38616;42.140;24.760;2023-06-26T09:32:37;99088.97;;;28.23;48.09
52719;BME280;38616;42.140;24.760;2023-06-26T09:35:03;99075.13;;;26.59;54.12
52719;BME280;38616;42.140;24.760;2023-06-26T09:37:29;99083.91;;;25.45;57.76
52719;BME280;38616;42.140;24.760;2023-06-26T09:39:55;99093.50;;;24.70;59.28
52719;BME280;38616;42.140;24.760;2023-06-26T09:42:20;99086.72;;;24.64;60.37
52719;BME280;38616;42.140;24.760;2023-06-26T09:44:47;99076.97;;;24.96;59.30
52719;BME280;38616;42.140;24.760;2023-06-26T09:47:16;99081.84;;;25.24;58.57
52719;BME280;38616;42.140;24.760;2023-06-26T09:49:43;99096.94;;;25.30;59.26
52719;BME280;38616;42.140;24.760;2023-06-26T09:52:08;99106.75;;;24.28;61.86
52719;BME280;38616;42.140;24.760;2023-06-26T09:54:34;99100.31;;;24.17;62.92
52719;BME280;38616;42.140;24.760;2023-06-26T09:57:13;99107.81;;;24.13;63.45
52719;BME280;38616;42.140;24.760;2023-06-26T09:59:39;99109.19;;;24.41;61.56
52719;BME280;38616;42.140;24.760;2023-06-26T10:02:06;99111.53;;;24.31;59.93
52719;BME280;38616;42.140;24.760;2023-06-26T10:04:32;99105.75;;;24.58;59.84
52719;BME280;38616;42.140;24.760;2023-06-26T10:07:01;99096.47;;;24.32;58.83
52719;BME280;38616;42.140;24.760;2023-06-26T10:09:27;99100.25;;;24.69;59.40
52719;BME280;38616;42.140;24.760;2023-06-26T10:12:11;99090.34;;;24.72;59.19
52719;BME280;38616;42.140;24.760;2023-06-26T10:14:39;99075.00;;;25.00;59.26
52719;BME280;38616;42.140;24.760;2023-06-26T10:17:08;99073.13;;;25.26;57.82
52719;BME280;38616;42.140;24.760;2023-06-26T10:19:35;99068.44;;;25.88;58.13
52719;BME280;38616;42.140;24.760;2023-06-26T10:22:02;99076.00;;;25.98;58.84
52719;BME280;38616;42.140;24.760;2023-06-26T10:24:31;99064.47;;;26.10;58.74
52719;BME280;38616;42.140;24.760;2023-06-26T10:27:02;99072.44;;;26.23;59.83
52719;BME280;38616;42.140;24.760;2023-06-26T10:29:30;99064.84;;;26.49;58.97
52719;BME280;38616;42.140;24.760;2023-06-26T10:31:58;99058.81;;;26.65;57.32
52719;BME280;38616;42.140;24.760;2023-06-26T10:34:25;99062.72;;;26.93;55.65
52719;BME280;38616;42.140;24.760;2023-06-26T10:37:01;99056.75;;;26.91;58.43
52719;BME280;38616;42.140;24.760;2023-06-26T10:39:27;99055.50;;;27.03;57.78
52719;BME280;38616;42.140;24.760;2023-06-26T10:42:08;99051.44;;;27.18;56.65
52719;BME280;38616;42.140;24.760;2023-06-26T10:44:43;99047.41;;;27.26;57.34
52719;BME280;38616;42.140;24.760;2023-06-26T10:47:10;99040.06;;;27.58;56.42
52719;BME280;38616;42.140;24.760;2023-06-26T10:49:37;99041.53;;;27.70;54.63
52719;BME280;38616;42.140;24.760;2023-06-26T10:52:05;99037.56;;;27.71;53.59
52719;BME280;38616;42.140;24.760;2023-06-26T10:54:32;99038.22;;;27.86;54.15
52719;BME280;38616;42.140;24.760;2023-06-26T10:56:58;99033.63;;;28.10;51.39
52719;BME280;38616;42.140;24.760;2023-06-26T10:59:25;99032.41;;;28.11;51.05
52719;BME280;38616;42.140;24.760;2023-06-26T11:01:59;99037.13;;;28.22;52.35
52719;BME280;38616;42.140;24.760;2023-06-26T11:04:44;99032.97;;;28.37;51.61
52719;BME280;38616;42.140;24.760;2023-06-26T11:07:22;99025.59;;;28.16;49.75
52719;BME280;38616;42.140;24.760;2023-06-26T11:09:58;99022.97;;;27.98;48.83
52719;BME280;38616;42.140;24.760;2023-06-26T11:15:13;99021.16;;;28.22;48.10
52719;BME280;38616;42.140;24.760;2023-06-26T11:17:42;99029.56;;;28.57;47.83
52719;BME280;38616;42.140;24.760;2023-06-26T11:20:09;99030.16;;;28.72;48.61
52719;BME280;38616;42.140;24.760;2023-06-26T11:22:39;99030.97;;;28.72;49.19
52719;BME280;38616;42.140;24.760;2023-06-26T11:25:07;99026.22;;;28.69;49.09
52719;BME280;38616;42.140;24.760;2023-06-26T11:27:42;99026.66;;;28.68;48.63
52719;BME280;38616;42.140;24.760;2023-06-26T11:30:10;99021.38;;;28.73;49.29
52719;BME280;38616;42.140;24.760;2023-06-26T11:32:37;99019.84;;;28.69;49.39
52719;BME280;38616;42.140;24.760;2023-06-26T11:35:03;99026.31;;;28.62;49.27
52719;BME280;38616;42.140;24.760;2023-06-26T11:37:30;99021.53;;;28.59;48.44
52719;BME280;38616;42.140;24.760;2023-06-26T11:39:56;99023.03;;;28.67;48.54
52719;BME280;38616;42.140;24.760;2023-06-26T11:42:21;99020.41;;;28.53;48.66
52719;BME280;38616;42.140;24.760;2023-06-26T11:44:47;99034.16;;;28.36;49.07
52719;BME280;38616;42.140;24.760;2023-06-26T11:47:20;99027.38;;;27.95;50.21
52719;BME280;38616;42.140;24.760;2023-06-26T11:49:47;99019.28;;;27.66;51.43
52719;BME280;38616;42.140;24.760;2023-06-26T11:52:13;99018.84;;;27.71;52.07
52719;BME280;38616;42.140;24.760;2023-06-26T11:54:39;99024.81;;;27.70;51.52
52719;BME280;38616;42.140;24.760;2023-06-26T11:57:05;99016.72;;;27.83;50.96
52719;BME280;38616;42.140;24.760;2023-06-26T11:59:38;99016.66;;;27.90;50.46
52719;BME280;38616;42.140;24.760;2023-06-26T12:02:13;99018.91;;;28.06;50.17
52719;BME280;38616;42.140;24.760;2023-06-26T12:04:41;99023.63;;;28.16;50.68
52719;BME280;38616;42.140;24.760;2023-06-26T12:07:08;99029.63;;;28.50;51.00
52719;BME280;38616;42.140;24.760;2023-06-26T12:09:43;99026.44;;;28.86;51.49
52719;BME280;38616;42.140;24.760;2023-06-26T12:12:11;99026.38;;;28.89;50.47
52719;BME280;38616;42.140;24.760;2023-06-26T12:14:39;99020.00;;;28.89;49.65
52719;BME280;38616;42.140;24.760;2023-06-26T12:17:11;99022.06;;;28.85;49.61
52719;BME280;38616;42.140;24.760;2023-06-26T12:19:38;99023.13;;;28.60;49.43
52719;BME280;38616;42.140;24.760;2023-06-26T12:22:07;99020.56;;;28.77;49.07
52719;BME280;38616;42.140;24.760;2023-06-26T12:24:33;99025.03;;;29.01;48.83
52719;BME280;38616;42.140;24.760;2023-06-26T12:27:00;99022.75;;;29.20;48.75
52719;BME280;38616;42.140;24.760;2023-06-26T12:29:32;99032.59;;;29.32;47.71
52719;BME280;38616;42.140;24.760;2023-06-26T12:31:58;99041.03;;;29.28;45.40
52719;BME280;38616;42.140;24.760;2023-06-26T12:34:34;99047.81;;;29.27;46.40
52719;BME280;38616;42.140;24.760;2023-06-26T12:37:01;99049.25;;;29.12;45.43
52719;BME280;38616;42.140;24.760;2023-06-26T12:39:28;99051.31;;;29.08;45.67
52719;BME280;38616;42.140;24.760;2023-06-26T12:41:58;99053.38;;;29.03;46.67
52719;BME280;38616;42.140;24.760;2023-06-26T12:44:26;99052.25;;;28.63;46.03
52719;BME280;38616;42.140;24.760;2023-06-26T12:47:02;99055.22;;;28.44;46.54
52719;BME280;38616;42.140;24.760;2023-06-26T12:49:39;99062.72;;;28.16;46.32
52719;BME280;38616;42.140;24.760;2023-06-26T12:52:06;99065.34;;;28.31;46.28
52719;BME280;38616;42.140;24.760;2023-06-26T12:54:36;99068.00;;;27.43;49.55
52719;BME280;38616;42.140;24.760;2023-06-26T12:57:02;99069.72;;;27.23;51.29
52719;BME280;38616;42.140;24.760;2023-06-26T12:59:35;99075.94;;;26.56;55.40
52719;BME280;38616;42.140;24.760;2023-06-26T13:02:00;99075.22;;;26.16;57.86